sensor_id;sensor_type;location;lat;lon;timestamp;P1;durP1;ratioP1;P2;durP2;ratioP2
47365;SDS011;33105;47.964;7.982;2023-02-01T00:02:08;3.83;;;2.50;;
47365;SDS011;33105;47.964;7.982;2023-02-01T00:05:09;2.88;;;2.40;;
47365;SDS011;33105;47.964;7.982;2023-02-01T00:08:11;2.30;;;1.70;;
47365;SDS011;33105;47.964;7.982;2023-02-01T00:11:12;3.83;;;1.98;;
47365;SDS011;33105;47.964;7.982;2023-02-01T00:14:14;3.28;;;2.00;;
47365;SDS011;33105;47.964;7.982;2023-02-01T00:17:15;5.03;;;2.42;;
47365;SDS011;33105;47.964;7.982;2023-02-01T00:20:17;4.97;;;2.58;;
47365;SDS011;33105;47.964;7.982;2023-02-01T00:23:18;3.90;;;2.38;;
47365;SDS011;33105;47.964;7.982;2023-02-01T00:26:20;3.25;;;2.13;;
47365;SDS011;33105;47.964;7.982;2023-02-01T00:29:28;4.05;;;2.53;;
47365;SDS011;33105;47.964;7.982;2023-02-01T00:32:29;4.82;;;2.75;;
47365;SDS011;33105;47.964;7.982;2023-02-01T00:35:35;2.17;;;1.98;;
47365;SDS011;33105;47.964;7.982;2023-02-01T00:38:37;2.80;;;2.28;;
47365;SDS011;33105;47.964;7.982;2023-02-01T00:41:40;5.95;;;2.75;;
47365;SDS011;33105;47.964;7.982;2023-02-01T00:44:41;3.83;;;2.50;;
47365;SDS011;33105;47.964;7.982;2023-02-01T00:47:42;3.60;;;2.38;;
47365;SDS011;33105;47.964;7.982;2023-02-01T00:50:44;3.97;;;2.65;;
47365;SDS011;33105;47.964;7.982;2023-02-01T00:53:45;3.30;;;2.45;;
47365;SDS011;33105;47.964;7.982;2023-02-01T00:56:46;3.83;;;2.40;;
47365;SDS011;33105;47.964;7.982;2023-02-01T00:59:48;3.63;;;2.17;;
47365;SDS011;33105;47.964;7.982;2023-02-01T01:02:49;3.75;;;2.53;;
47365;SDS011;33105;47.964;7.982;2023-02-01T01:05:50;3.08;;;2.28;;
47365;SDS011;33105;47.964;7.982;2023-02-01T01:08:52;4.88;;;2.50;;
47365;SDS011;33105;47.964;7.982;2023-02-01T01:11:55;4.18;;;2.35;;
47365;SDS011;33105;47.964;7.982;2023-02-01T01:14:56;6.38;;;2.75;;
47365;SDS011;33105;47.964;7.982;2023-02-01T01:17:57;4.55;;;2.70;;
47365;SDS011;33105;47.964;7.982;2023-02-01T01:20:59;3.83;;;1.90;;
47365;SDS011;33105;47.964;7.982;2023-02-01T01:24:01;3.88;;;2.25;;
47365;SDS011;33105;47.964;7.982;2023-02-01T01:27:02;4.93;;;2.35;;
47365;SDS011;33105;47.964;7.982;2023-02-01T01:30:03;4.38;;;2.92;;
47365;SDS011;33105;47.964;7.982;2023-02-01T01:33:05;4.18;;;2.70;;
47365;SDS011;33105;47.964;7.982;2023-02-01T01:36:07;3.90;;;2.50;;
47365;SDS011;33105;47.964;7.982;2023-02-01T01:39:11;2.97;;;2.25;;
47365;SDS011;33105;47.964;7.982;2023-02-01T01:42:13;5.22;;;2.47;;
47365;SDS011;33105;47.964;7.982;2023-02-01T01:48:30;3.58;;;2.40;;
47365;SDS011;33105;47.964;7.982;2023-02-01T01:51:32;5.30;;;2.22;;
47365;SDS011;33105;47.964;7.982;2023-02-01T01:54:44;4.82;;;2.22;;
47365;SDS011;33105;47.964;7.982;2023-02-01T01:57:50;4.30;;;2.83;;
47365;SDS011;33105;47.964;7.982;2023-02-01T02:00:57;7.70;;;2.63;;
47365;SDS011;33105;47.964;7.982;2023-02-01T02:03:58;4.07;;;1.90;;
47365;SDS011;33105;47.964;7.982;2023-02-01T02:07:03;2.83;;;2.20;;
47365;SDS011;33105;47.964;7.982;2023-02-01T02:10:07;3.95;;;2.20;;
47365;SDS011;33105;47.964;7.982;2023-02-01T02:13:11;3.67;;;2.30;;
47365;SDS011;33105;47.964;7.982;2023-02-01T02:29:45;3.63;;;2.00;;
47365;SDS011;33105;47.964;7.982;2023-02-01T02:40:48;3.40;;;2.03;;
47365;SDS011;33105;47.964;7.982;2023-02-01T02:47:11;3.67;;;2.25;;
47365;SDS011;33105;47.964;7.982;2023-02-01T02:50:49;3.78;;;2.22;;
47365;SDS011;33105;47.964;7.982;2023-02-01T02:54:26;3.95;;;2.33;;
47365;SDS011;33105;47.964;7.982;2023-02-01T02:57:50;3.88;;;2.05;;
47365;SDS011;33105;47.964;7.982;2023-02-01T03:01:11;4.47;;;1.55;;
47365;SDS011;33105;47.964;7.982;2023-02-01T03:04:32;3.92;;;1.75;;
47365;SDS011;33105;47.964;7.982;2023-02-01T03:11:03;4.38;;;2.13;;
47365;SDS011;33105;47.964;7.982;2023-02-01T03:14:07;3.50;;;2.10;;
47365;SDS011;33105;47.964;7.982;2023-02-01T03:17:13;3.17;;;1.77;;
47365;SDS011;33105;47.964;7.982;2023-02-01T03:20:18;3.95;;;2.00;;
47365;SDS011;33105;47.964;7.982;2023-02-01T03:23:23;3.03;;;1.80;;
47365;SDS011;33105;47.964;7.982;2023-02-01T03:26:30;3.58;;;1.42;;
47365;SDS011;33105;47.964;7.982;2023-02-01T03:29:37;1.80;;;1.23;;
47365;SDS011;33105;47.964;7.982;2023-02-01T03:32:42;2.55;;;1.88;;
47365;SDS011;33105;47.964;7.982;2023-02-01T03:39:15;2.90;;;1.83;;
47365;SDS011;33105;47.964;7.982;2023-02-01T03:45:58;3.72;;;1.92;;
47365;SDS011;33105;47.964;7.982;2023-02-01T03:49:05;4.07;;;1.70;;
47365;SDS011;33105;47.964;7.982;2023-02-01T03:52:16;5.65;;;2.30;;
47365;SDS011;33105;47.964;7.982;2023-02-01T03:55:23;6.80;;;2.22;;
47365;SDS011;33105;47.964;7.982;2023-02-01T03:58:26;3.10;;;2.25;;
47365;SDS011;33105;47.964;7.982;2023-02-01T04:01:28;6.18;;;2.13;;
47365;SDS011;33105;47.964;7.982;2023-02-01T04:04:31;3.00;;;1.95;;
47365;SDS011;33105;47.964;7.982;2023-02-01T04:07:34;3.72;;;2.30;;
47365;SDS011;33105;47.964;7.982;2023-02-01T04:10:35;2.75;;;1.80;;
47365;SDS011;33105;47.964;7.982;2023-02-01T04:13:37;3.85;;;2.10;;
47365;SDS011;33105;47.964;7.982;2023-02-01T04:16:38;4.20;;;2.38;;
47365;SDS011;33105;47.964;7.982;2023-02-01T04:19:39;3.42;;;2.25;;
47365;SDS011;33105;47.964;7.982;2023-02-01T04:22:40;4.07;;;2.00;;
47365;SDS011;33105;47.964;7.982;2023-02-01T04:25:41;2.90;;;1.80;;
47365;SDS011;33105;47.964;7.982;2023-02-01T04:28:42;2.75;;;1.70;;
47365;SDS011;33105;47.964;7.982;2023-02-01T04:31:44;3.38;;;1.90;;
47365;SDS011;33105;47.964;7.982;2023-02-01T04:34:46;3.20;;;1.45;;
47365;SDS011;33105;47.964;7.982;2023-02-01T04:37:48;1.90;;;1.25;;
47365;SDS011;33105;47.964;7.982;2023-02-01T04:40:49;3.88;;;2.05;;
47365;SDS011;33105;47.964;7.982;2023-02-01T04:43:50;3.53;;;1.80;;
47365;SDS011;33105;47.964;7.982;2023-02-01T04:46:53;1.75;;;1.40;;
47365;SDS011;33105;47.964;7.982;2023-02-01T04:49:54;2.33;;;1.20;;
47365;SDS011;33105;47.964;7.982;2023-02-01T04:52:55;4.32;;;1.20;;
47365;SDS011;33105;47.964;7.982;2023-02-01T04:55:56;2.10;;;1.60;;
47365;SDS011;33105;47.964;7.982;2023-02-01T04:58:58;1.70;;;1.20;;
47365;SDS011;33105;47.964;7.982;2023-02-01T05:01:59;1.70;;;1.00;;
47365;SDS011;33105;47.964;7.982;2023-02-01T05:05:00;3.97;;;1.83;;
47365;SDS011;33105;47.964;7.982;2023-02-01T05:08:02;5.97;;;3.20;;
47365;SDS011;33105;47.964;7.982;2023-02-01T05:11:04;4.53;;;2.45;;
47365;SDS011;33105;47.964;7.982;2023-02-01T05:14:05;4.10;;;2.25;;
47365;SDS011;33105;47.964;7.982;2023-02-01T05:17:07;5.43;;;3.13;;
47365;SDS011;33105;47.964;7.982;2023-02-01T05:20:08;4.70;;;2.78;;
47365;SDS011;33105;47.964;7.982;2023-02-01T05:23:10;4.57;;;1.92;;
47365;SDS011;33105;47.964;7.982;2023-02-01T05:26:11;3.00;;;1.50;;
47365;SDS011;33105;47.964;7.982;2023-02-01T05:29:12;2.97;;;1.45;;
47365;SDS011;33105;47.964;7.982;2023-02-01T05:32:14;2.88;;;0.90;;
47365;SDS011;33105;47.964;7.982;2023-02-01T05:35:15;1.75;;;0.95;;
47365;SDS011;33105;47.964;7.982;2023-02-01T05:38:17;1.38;;;1.10;;
47365;SDS011;33105;47.964;7.982;2023-02-01T05:41:18;2.95;;;1.00;;
47365;SDS011;33105;47.964;7.982;2023-02-01T05:44:19;1.25;;;0.90;;
47365;SDS011;33105;47.964;7.982;2023-02-01T05:47:20;1.55;;;0.82;;
47365;SDS011;33105;47.964;7.982;2023-02-01T05:50:21;2.65;;;1.33;;
47365;SDS011;33105;47.964;7.982;2023-02-01T05:53:30;2.27;;;1.20;;
47365;SDS011;33105;47.964;7.982;2023-02-01T05:56:31;1.02;;;0.90;;
47365;SDS011;33105;47.964;7.982;2023-02-01T05:59:32;2.63;;;1.00;;
47365;SDS011;33105;47.964;7.982;2023-02-01T06:02:34;1.75;;;1.25;;
47365;SDS011;33105;47.964;7.982;2023-02-01T06:05:35;1.77;;;1.10;;
47365;SDS011;33105;47.964;7.982;2023-02-01T06:08:37;1.85;;;0.98;;
47365;SDS011;33105;47.964;7.982;2023-02-01T06:11:41;1.23;;;0.82;;
47365;SDS011;33105;47.964;7.982;2023-02-01T06:14:42;1.50;;;1.05;;
47365;SDS011;33105;47.964;7.982;2023-02-01T06:17:44;1.77;;;1.00;;
47365;SDS011;33105;47.964;7.982;2023-02-01T06:20:51;2.08;;;0.98;;
47365;SDS011;33105;47.964;7.982;2023-02-01T06:23:56;2.65;;;1.33;;
47365;SDS011;33105;47.964;7.982;2023-02-01T06:26:58;1.77;;;0.60;;
47365;SDS011;33105;47.964;7.982;2023-02-01T06:29:59;1.30;;;0.70;;
47365;SDS011;33105;47.964;7.982;2023-02-01T06:33:00;1.08;;;0.68;;
47365;SDS011;33105;47.964;7.982;2023-02-01T06:36:02;0.50;;;0.50;;
47365;SDS011;33105;47.964;7.982;2023-02-01T06:39:05;0.77;;;0.47;;
47365;SDS011;33105;47.964;7.982;2023-02-01T06:42:06;1.85;;;0.55;;
47365;SDS011;33105;47.964;7.982;2023-02-01T06:45:08;0.52;;;0.50;;
47365;SDS011;33105;47.964;7.982;2023-02-01T06:48:09;0.98;;;0.70;;
47365;SDS011;33105;47.964;7.982;2023-02-01T06:51:26;2.95;;;0.90;;
47365;SDS011;33105;47.964;7.982;2023-02-01T06:54:29;1.30;;;0.93;;
47365;SDS011;33105;47.964;7.982;2023-02-01T06:57:34;1.55;;;1.20;;
47365;SDS011;33105;47.964;7.982;2023-02-01T07:00:36;1.35;;;0.85;;
47365;SDS011;33105;47.964;7.982;2023-02-01T07:03:37;0.82;;;0.50;;
47365;SDS011;33105;47.964;7.982;2023-02-01T07:06:39;1.52;;;1.17;;
47365;SDS011;33105;47.964;7.982;2023-02-01T07:09:41;2.33;;;1.20;;
47365;SDS011;33105;47.964;7.982;2023-02-01T07:12:42;2.22;;;1.30;;
47365;SDS011;33105;47.964;7.982;2023-02-01T07:15:43;1.45;;;0.90;;
47365;SDS011;33105;47.964;7.982;2023-02-01T07:18:44;2.45;;;1.48;;
47365;SDS011;33105;47.964;7.982;2023-02-01T07:21:46;4.32;;;1.30;;
47365;SDS011;33105;47.964;7.982;2023-02-01T07:24:47;2.45;;;1.30;;
47365;SDS011;33105;47.964;7.982;2023-02-01T07:27:48;1.80;;;1.13;;
47365;SDS011;33105;47.964;7.982;2023-02-01T07:30:49;1.30;;;0.90;;
47365;SDS011;33105;47.964;7.982;2023-02-01T07:33:54;1.95;;;0.93;;
47365;SDS011;33105;47.964;7.982;2023-02-01T07:36:57;3.25;;;1.17;;
47365;SDS011;33105;47.964;7.982;2023-02-01T07:39:58;2.08;;;1.20;;
47365;SDS011;33105;47.964;7.982;2023-02-01T07:42:59;3.00;;;0.82;;
47365;SDS011;33105;47.964;7.982;2023-02-01T07:46:00;1.98;;;0.75;;
47365;SDS011;33105;47.964;7.982;2023-02-01T07:49:03;2.15;;;1.08;;
47365;SDS011;33105;47.964;7.982;2023-02-01T07:52:04;1.80;;;1.00;;
47365;SDS011;33105;47.964;7.982;2023-02-01T07:55:05;1.48;;;0.88;;
47365;SDS011;33105;47.964;7.982;2023-02-01T07:58:07;2.80;;;0.70;;
47365;SDS011;33105;47.964;7.982;2023-02-01T08:01:15;1.15;;;0.70;;
47365;SDS011;33105;47.964;7.982;2023-02-01T08:04:21;1.95;;;0.75;;
47365;SDS011;33105;47.964;7.982;2023-02-01T08:07:23;2.35;;;1.10;;
47365;SDS011;33105;47.964;7.982;2023-02-01T08:10:24;3.65;;;0.98;;
47365;SDS011;33105;47.964;7.982;2023-02-01T08:13:25;1.85;;;0.90;;
47365;SDS011;33105;47.964;7.982;2023-02-01T08:16:26;3.35;;;1.25;;
47365;SDS011;33105;47.964;7.982;2023-02-01T08:19:27;2.95;;;0.90;;
47365;SDS011;33105;47.964;7.982;2023-02-01T08:22:31;3.95;;;1.20;;
47365;SDS011;33105;47.964;7.982;2023-02-01T08:25:33;5.90;;;1.60;;
47365;SDS011;33105;47.964;7.982;2023-02-01T08:28:36;1.88;;;1.10;;
47365;SDS011;33105;47.964;7.982;2023-02-01T08:31:38;3.95;;;1.58;;
47365;SDS011;33105;47.964;7.982;2023-02-01T08:34:41;7.18;;;1.10;;
47365;SDS011;33105;47.964;7.982;2023-02-01T08:37:42;4.28;;;1.15;;
47365;SDS011;33105;47.964;7.982;2023-02-01T08:40:43;3.00;;;1.23;;
47365;SDS011;33105;47.964;7.982;2023-02-01T08:43:46;2.10;;;1.17;;
47365;SDS011;33105;47.964;7.982;2023-02-01T08:46:48;3.80;;;1.40;;
47365;SDS011;33105;47.964;7.982;2023-02-01T08:49:50;5.25;;;1.33;;
47365;SDS011;33105;47.964;7.982;2023-02-01T08:52:52;1.77;;;1.27;;
47365;SDS011;33105;47.964;7.982;2023-02-01T08:55:53;5.47;;;1.48;;
47365;SDS011;33105;47.964;7.982;2023-02-01T08:58:55;4.38;;;1.58;;
47365;SDS011;33105;47.964;7.982;2023-02-01T09:01:56;3.70;;;1.30;;
47365;SDS011;33105;47.964;7.982;2023-02-01T09:04:57;2.55;;;1.13;;
47365;SDS011;33105;47.964;7.982;2023-02-01T09:07:58;5.07;;;1.73;;
47365;SDS011;33105;47.964;7.982;2023-02-01T09:11:00;3.08;;;1.52;;
47365;SDS011;33105;47.964;7.982;2023-02-01T09:14:03;4.72;;;1.33;;
47365;SDS011;33105;47.964;7.982;2023-02-01T09:17:04;2.17;;;1.17;;
47365;SDS011;33105;47.964;7.982;2023-02-01T09:20:06;1.90;;;1.17;;
47365;SDS011;33105;47.964;7.982;2023-02-01T09:23:07;3.17;;;1.08;;
47365;SDS011;33105;47.964;7.982;2023-02-01T09:26:09;3.88;;;1.50;;
47365;SDS011;33105;47.964;7.982;2023-02-01T09:29:12;3.75;;;1.08;;
47365;SDS011;33105;47.964;7.982;2023-02-01T09:32:13;4.28;;;1.10;;
47365;SDS011;33105;47.964;7.982;2023-02-01T09:35:14;6.13;;;1.33;;
47365;SDS011;33105;47.964;7.982;2023-02-01T09:38:15;2.88;;;1.20;;
47365;SDS011;33105;47.964;7.982;2023-02-01T09:41:35;3.95;;;1.52;;
47365;SDS011;33105;47.964;7.982;2023-02-01T09:47:51;3.90;;;1.40;;
47365;SDS011;33105;47.964;7.982;2023-02-01T09:50:57;2.80;;;1.30;;
47365;SDS011;33105;47.964;7.982;2023-02-01T09:54:03;2.05;;;1.23;;
47365;SDS011;33105;47.964;7.982;2023-02-01T09:57:13;6.60;;;1.45;;
47365;SDS011;33105;47.964;7.982;2023-02-01T10:00:20;2.42;;;1.30;;
47365;SDS011;33105;47.964;7.982;2023-02-01T10:03:32;4.35;;;1.55;;
47365;SDS011;33105;47.964;7.982;2023-02-01T10:10:08;4.03;;;1.52;;
47365;SDS011;33105;47.964;7.982;2023-02-01T10:13:41;3.75;;;1.60;;
47365;SDS011;33105;47.964;7.982;2023-02-01T10:26:32;4.72;;;1.48;;
47365;SDS011;33105;47.964;7.982;2023-02-01T10:29:39;4.95;;;1.83;;
47365;SDS011;33105;47.964;7.982;2023-02-01T10:32:42;5.28;;;2.22;;
47365;SDS011;33105;47.964;7.982;2023-02-01T10:35:44;7.13;;;2.13;;
47365;SDS011;33105;47.964;7.982;2023-02-01T10:38:47;7.18;;;2.05;;
47365;SDS011;33105;47.964;7.982;2023-02-01T10:41:48;6.70;;;2.05;;
47365;SDS011;33105;47.964;7.982;2023-02-01T10:44:50;7.85;;;2.08;;
47365;SDS011;33105;47.964;7.982;2023-02-01T10:47:52;7.93;;;2.47;;
47365;SDS011;33105;47.964;7.982;2023-02-01T10:54:08;8.30;;;2.25;;
47365;SDS011;33105;47.964;7.982;2023-02-01T10:57:20;14.35;;;2.90;;
47365;SDS011;33105;47.964;7.982;2023-02-01T11:00:25;8.75;;;3.00;;
47365;SDS011;33105;47.964;7.982;2023-02-01T11:07:04;5.35;;;2.20;;
47365;SDS011;33105;47.964;7.982;2023-02-01T11:10:08;6.40;;;2.45;;
47365;SDS011;33105;47.964;7.982;2023-02-01T11:13:41;5.63;;;2.45;;
47365;SDS011;33105;47.964;7.982;2023-02-01T11:16:46;11.18;;;2.25;;
47365;SDS011;33105;47.964;7.982;2023-02-01T11:20:00;9.00;;;2.67;;
47365;SDS011;33105;47.964;7.982;2023-02-01T11:23:12;6.18;;;2.30;;
47365;SDS011;33105;47.964;7.982;2023-02-01T11:26:23;7.47;;;2.42;;
47365;SDS011;33105;47.964;7.982;2023-02-01T11:29:26;4.80;;;2.45;;
47365;SDS011;33105;47.964;7.982;2023-02-01T11:32:32;9.93;;;2.95;;
47365;SDS011;33105;47.964;7.982;2023-02-01T11:35:34;10.43;;;2.67;;
47365;SDS011;33105;47.964;7.982;2023-02-01T11:38:40;10.70;;;2.28;;
47365;SDS011;33105;47.964;7.982;2023-02-01T11:45:19;11.10;;;2.63;;
47365;SDS011;33105;47.964;7.982;2023-02-01T11:48:27;12.60;;;2.72;;
47365;SDS011;33105;47.964;7.982;2023-02-01T12:05:32;11.15;;;2.90;;
47365;SDS011;33105;47.964;7.982;2023-02-01T12:25:26;12.48;;;2.67;;
47365;SDS011;33105;47.964;7.982;2023-02-01T12:28:33;11.50;;;3.88;;
47365;SDS011;33105;47.964;7.982;2023-02-01T12:38:35;12.57;;;2.90;;
47365;SDS011;33105;47.964;7.982;2023-02-01T12:42:18;10.88;;;3.13;;
47365;SDS011;33105;47.964;7.982;2023-02-01T12:45:31;9.23;;;2.50;;
47365;SDS011;33105;47.964;7.982;2023-02-01T12:48:44;12.80;;;2.72;;
47365;SDS011;33105;47.964;7.982;2023-02-01T12:55:51;13.20;;;3.10;;
47365;SDS011;33105;47.964;7.982;2023-02-01T12:58:56;13.70;;;3.08;;
47365;SDS011;33105;47.964;7.982;2023-02-01T13:05:31;15.23;;;3.55;;
47365;SDS011;33105;47.964;7.982;2023-02-01T13:08:56;11.23;;;2.75;;
47365;SDS011;33105;47.964;7.982;2023-02-01T13:12:09;11.95;;;3.13;;
47365;SDS011;33105;47.964;7.982;2023-02-01T13:15:49;11.52;;;2.50;;
47365;SDS011;33105;47.964;7.982;2023-02-01T13:18:45;15.73;;;2.40;;
47365;SDS011;33105;47.964;7.982;2023-02-01T13:21:53;10.27;;;2.38;;
47365;SDS011;33105;47.964;7.982;2023-02-01T13:25:05;15.18;;;3.10;;
47365;SDS011;33105;47.964;7.982;2023-02-01T13:28:16;13.35;;;3.00;;
47365;SDS011;33105;47.964;7.982;2023-02-01T13:31:24;14.45;;;3.08;;
47365;SDS011;33105;47.964;7.982;2023-02-01T13:41:29;19.60;;;3.30;;
47365;SDS011;33105;47.964;7.982;2023-02-01T13:44:40;28.52;;;6.55;;
47365;SDS011;33105;47.964;7.982;2023-02-01T13:47:52;19.08;;;3.15;;
47365;SDS011;33105;47.964;7.982;2023-02-01T13:50:56;19.88;;;3.90;;
47365;SDS011;33105;47.964;7.982;2023-02-01T13:53:59;11.35;;;2.60;;
47365;SDS011;33105;47.964;7.982;2023-02-01T13:57:02;13.15;;;2.95;;
47365;SDS011;33105;47.964;7.982;2023-02-01T14:00:06;10.15;;;2.38;;
47365;SDS011;33105;47.964;7.982;2023-02-01T14:03:09;13.05;;;2.40;;
47365;SDS011;33105;47.964;7.982;2023-02-01T14:06:35;18.35;;;2.83;;
47365;SDS011;33105;47.964;7.982;2023-02-01T14:09:41;14.73;;;2.80;;
47365;SDS011;33105;47.964;7.982;2023-02-01T14:16:10;16.35;;;3.42;;
47365;SDS011;33105;47.964;7.982;2023-02-01T14:19:27;17.15;;;2.72;;
47365;SDS011;33105;47.964;7.982;2023-02-01T14:22:33;13.40;;;2.67;;
47365;SDS011;33105;47.964;7.982;2023-02-01T14:25:35;20.83;;;3.15;;
47365;SDS011;33105;47.964;7.982;2023-02-01T14:28:38;17.65;;;3.33;;
47365;SDS011;33105;47.964;7.982;2023-02-01T14:31:46;12.32;;;2.47;;
47365;SDS011;33105;47.964;7.982;2023-02-01T14:34:51;19.75;;;3.47;;
47365;SDS011;33105;47.964;7.982;2023-02-01T14:37:59;12.80;;;3.28;;
47365;SDS011;33105;47.964;7.982;2023-02-01T14:41:12;17.08;;;3.30;;
47365;SDS011;33105;47.964;7.982;2023-02-01T14:44:24;13.10;;;2.90;;
47365;SDS011;33105;47.964;7.982;2023-02-01T14:47:28;12.93;;;2.92;;
47365;SDS011;33105;47.964;7.982;2023-02-01T14:53:40;12.90;;;2.70;;
47365;SDS011;33105;47.964;7.982;2023-02-01T14:56:44;17.27;;;2.78;;
47365;SDS011;33105;47.964;7.982;2023-02-01T14:59:46;18.27;;;4.35;;
47365;SDS011;33105;47.964;7.982;2023-02-01T15:02:51;18.33;;;3.33;;
47365;SDS011;33105;47.964;7.982;2023-02-01T15:05:55;17.23;;;3.05;;
47365;SDS011;33105;47.964;7.982;2023-02-01T15:09:09;14.45;;;3.70;;
47365;SDS011;33105;47.964;7.982;2023-02-01T15:12:18;17.27;;;3.13;;
47365;SDS011;33105;47.964;7.982;2023-02-01T15:15:27;16.92;;;3.00;;
47365;SDS011;33105;47.964;7.982;2023-02-01T15:18:29;14.95;;;2.75;;
47365;SDS011;33105;47.964;7.982;2023-02-01T15:21:31;17.65;;;3.45;;
47365;SDS011;33105;47.964;7.982;2023-02-01T15:24:32;16.40;;;3.67;;
47365;SDS011;33105;47.964;7.982;2023-02-01T15:27:33;14.43;;;3.35;;
47365;SDS011;33105;47.964;7.982;2023-02-01T15:30:34;16.85;;;3.88;;
47365;SDS011;33105;47.964;7.982;2023-02-01T15:33:36;16.17;;;3.20;;
47365;SDS011;33105;47.964;7.982;2023-02-01T15:36:38;14.52;;;3.45;;
47365;SDS011;33105;47.964;7.982;2023-02-01T15:40:02;14.18;;;3.03;;
47365;SDS011;33105;47.964;7.982;2023-02-01T15:43:22;15.45;;;2.90;;
47365;SDS011;33105;47.964;7.982;2023-02-01T15:46:35;19.77;;;3.05;;
47365;SDS011;33105;47.964;7.982;2023-02-01T15:49:40;16.35;;;3.08;;
47365;SDS011;33105;47.964;7.982;2023-02-01T15:52:45;17.58;;;2.90;;
47365;SDS011;33105;47.964;7.982;2023-02-01T15:55:52;15.82;;;2.63;;
47365;SDS011;33105;47.964;7.982;2023-02-01T15:58:57;13.57;;;2.35;;
47365;SDS011;33105;47.964;7.982;2023-02-01T16:01:59;14.63;;;2.67;;
47365;SDS011;33105;47.964;7.982;2023-02-01T16:05:02;15.25;;;3.70;;
47365;SDS011;33105;47.964;7.982;2023-02-01T16:08:14;12.38;;;2.55;;
47365;SDS011;33105;47.964;7.982;2023-02-01T16:11:22;18.50;;;2.58;;
47365;SDS011;33105;47.964;7.982;2023-02-01T16:14:26;17.52;;;3.10;;
47365;SDS011;33105;47.964;7.982;2023-02-01T16:17:27;18.75;;;3.30;;
47365;SDS011;33105;47.964;7.982;2023-02-01T16:20:29;23.45;;;3.80;;
47365;SDS011;33105;47.964;7.982;2023-02-01T16:23:30;14.13;;;2.83;;
47365;SDS011;33105;47.964;7.982;2023-02-01T16:26:32;17.85;;;3.33;;
47365;SDS011;33105;47.964;7.982;2023-02-01T16:29:35;17.00;;;3.13;;
47365;SDS011;33105;47.964;7.982;2023-02-01T16:32:36;20.70;;;3.40;;
47365;SDS011;33105;47.964;7.982;2023-02-01T16:35:41;19.13;;;3.50;;
47365;SDS011;33105;47.964;7.982;2023-02-01T16:38:42;16.55;;;3.20;;
47365;SDS011;33105;47.964;7.982;2023-02-01T16:41:43;16.92;;;3.60;;
47365;SDS011;33105;47.964;7.982;2023-02-01T16:44:46;17.88;;;3.10;;
47365;SDS011;33105;47.964;7.982;2023-02-01T16:47:48;19.33;;;3.35;;
47365;SDS011;33105;47.964;7.982;2023-02-01T16:50:53;11.55;;;2.67;;
47365;SDS011;33105;47.964;7.982;2023-02-01T16:53:57;13.00;;;2.80;;
47365;SDS011;33105;47.964;7.982;2023-02-01T16:56:58;13.55;;;2.72;;
47365;SDS011;33105;47.964;7.982;2023-02-01T16:59:59;12.52;;;2.15;;
47365;SDS011;33105;47.964;7.982;2023-02-01T17:03:05;10.32;;;2.15;;
47365;SDS011;33105;47.964;7.982;2023-02-01T17:06:06;11.45;;;2.75;;
47365;SDS011;33105;47.964;7.982;2023-02-01T17:09:10;14.00;;;2.30;;
47365;SDS011;33105;47.964;7.982;2023-02-01T17:12:25;13.20;;;2.30;;
47365;SDS011;33105;47.964;7.982;2023-02-01T17:15:29;13.85;;;2.30;;
47365;SDS011;33105;47.964;7.982;2023-02-01T17:18:35;11.48;;;2.80;;
47365;SDS011;33105;47.964;7.982;2023-02-01T17:21:41;14.45;;;2.90;;
47365;SDS011;33105;47.964;7.982;2023-02-01T17:24:44;11.32;;;2.45;;
47365;SDS011;33105;47.964;7.982;2023-02-01T17:27:46;7.35;;;2.40;;
47365;SDS011;33105;47.964;7.982;2023-02-01T17:30:47;8.93;;;2.72;;
47365;SDS011;33105;47.964;7.982;2023-02-01T17:33:49;11.18;;;2.80;;
47365;SDS011;33105;47.964;7.982;2023-02-01T17:36:50;10.60;;;2.70;;
47365;SDS011;33105;47.964;7.982;2023-02-01T17:39:52;17.35;;;5.70;;
47365;SDS011;33105;47.964;7.982;2023-02-01T17:42:56;10.07;;;2.47;;
47365;SDS011;33105;47.964;7.982;2023-02-01T17:45:58;11.50;;;2.10;;
47365;SDS011;33105;47.964;7.982;2023-02-01T17:49:04;9.75;;;3.05;;
47365;SDS011;33105;47.964;7.982;2023-02-01T17:52:05;13.23;;;2.50;;
47365;SDS011;33105;47.964;7.982;2023-02-01T17:55:25;14.10;;;2.65;;
47365;SDS011;33105;47.964;7.982;2023-02-01T17:58:27;11.73;;;2.38;;
47365;SDS011;33105;47.964;7.982;2023-02-01T18:01:30;13.27;;;2.28;;
47365;SDS011;33105;47.964;7.982;2023-02-01T18:04:31;10.55;;;2.55;;
47365;SDS011;33105;47.964;7.982;2023-02-01T18:07:32;11.07;;;2.33;;
47365;SDS011;33105;47.964;7.982;2023-02-01T18:10:34;12.98;;;2.33;;
47365;SDS011;33105;47.964;7.982;2023-02-01T18:13:35;12.25;;;1.80;;
47365;SDS011;33105;47.964;7.982;2023-02-01T18:16:36;13.35;;;2.35;;
47365;SDS011;33105;47.964;7.982;2023-02-01T18:19:38;11.18;;;2.00;;
47365;SDS011;33105;47.964;7.982;2023-02-01T18:22:39;7.82;;;2.33;;
47365;SDS011;33105;47.964;7.982;2023-02-01T18:25:40;12.30;;;2.42;;
47365;SDS011;33105;47.964;7.982;2023-02-01T18:28:41;14.80;;;2.45;;
47365;SDS011;33105;47.964;7.982;2023-02-01T18:31:44;14.20;;;1.92;;
47365;SDS011;33105;47.964;7.982;2023-02-01T18:34:47;10.20;;;1.70;;
47365;SDS011;33105;47.964;7.982;2023-02-01T18:37:49;9.82;;;1.67;;
47365;SDS011;33105;47.964;7.982;2023-02-01T18:40:52;14.20;;;2.50;;
47365;SDS011;33105;47.964;7.982;2023-02-01T18:43:57;8.05;;;1.55;;
47365;SDS011;33105;47.964;7.982;2023-02-01T18:46:59;12.20;;;1.95;;
47365;SDS011;33105;47.964;7.982;2023-02-01T18:50:00;8.13;;;2.33;;
47365;SDS011;33105;47.964;7.982;2023-02-01T18:53:02;12.63;;;2.00;;
47365;SDS011;33105;47.964;7.982;2023-02-01T18:56:05;9.68;;;1.98;;
47365;SDS011;33105;47.964;7.982;2023-02-01T18:59:06;7.78;;;1.45;;
47365;SDS011;33105;47.964;7.982;2023-02-01T19:02:09;8.20;;;1.77;;
47365;SDS011;33105;47.964;7.982;2023-02-01T19:05:13;16.85;;;2.95;;
47365;SDS011;33105;47.964;7.982;2023-02-01T19:08:15;14.60;;;2.40;;
47365;SDS011;33105;47.964;7.982;2023-02-01T19:11:16;15.82;;;2.55;;
47365;SDS011;33105;47.964;7.982;2023-02-01T19:14:19;16.23;;;2.70;;
47365;SDS011;33105;47.964;7.982;2023-02-01T19:17:21;17.75;;;2.47;;
47365;SDS011;33105;47.964;7.982;2023-02-01T19:20:23;11.05;;;2.38;;
47365;SDS011;33105;47.964;7.982;2023-02-01T19:23:26;15.48;;;2.80;;
47365;SDS011;33105;47.964;7.982;2023-02-01T19:26:27;7.35;;;2.40;;
47365;SDS011;33105;47.964;7.982;2023-02-01T19:29:29;12.52;;;2.50;;
47365;SDS011;33105;47.964;7.982;2023-02-01T19:32:30;8.73;;;2.05;;
47365;SDS011;33105;47.964;7.982;2023-02-01T19:35:32;8.43;;;2.53;;
47365;SDS011;33105;47.964;7.982;2023-02-01T19:38:33;13.40;;;2.60;;
47365;SDS011;33105;47.964;7.982;2023-02-01T19:41:35;13.63;;;2.78;;
47365;SDS011;33105;47.964;7.982;2023-02-01T19:44:36;12.95;;;2.05;;
47365;SDS011;33105;47.964;7.982;2023-02-01T19:47:40;9.80;;;2.15;;
47365;SDS011;33105;47.964;7.982;2023-02-01T19:50:41;11.23;;;2.35;;
47365;SDS011;33105;47.964;7.982;2023-02-01T19:53:43;12.43;;;2.58;;
47365;SDS011;33105;47.964;7.982;2023-02-01T19:56:44;13.10;;;3.30;;
47365;SDS011;33105;47.964;7.982;2023-02-01T19:59:48;12.90;;;2.47;;
47365;SDS011;33105;47.964;7.982;2023-02-01T20:02:49;13.45;;;2.10;;
47365;SDS011;33105;47.964;7.982;2023-02-01T20:05:54;13.45;;;1.75;;
47365;SDS011;33105;47.964;7.982;2023-02-01T20:08:57;14.88;;;2.28;;
47365;SDS011;33105;47.964;7.982;2023-02-01T20:11:58;12.13;;;2.58;;
47365;SDS011;33105;47.964;7.982;2023-02-01T20:15:00;10.82;;;2.08;;
47365;SDS011;33105;47.964;7.982;2023-02-01T20:18:01;10.60;;;2.08;;
47365;SDS011;33105;47.964;7.982;2023-02-01T20:21:03;12.55;;;2.45;;
47365;SDS011;33105;47.964;7.982;2023-02-01T20:24:05;12.55;;;2.33;;
47365;SDS011;33105;47.964;7.982;2023-02-01T20:27:06;11.52;;;2.47;;
47365;SDS011;33105;47.964;7.982;2023-02-01T20:30:10;11.50;;;2.75;;